Time;durP1;ratioP1;P1;durP2;ratioP2;P2;SDS_P1;SDS_P2;PMS_P1;PMS_P2;Temp;Humidity;BMP_temperature;BMP_pressure;BME280_temperature;BME280_humidity;BME280_pressure;Samples;Min_cycle;Max_cycle;Signal;HPM_P1;HPM_P2
2022/10/30 00:02:10;;;;;;;8.73;3.33;;;;;;;;;;5035702;28;92431;-76
2022/10/30 00:04:37;;;;;;;5.93;3.30;;;;;;;;;;5035605;28;93001;-77
2022/10/30 00:07:03;;;;;;;4.15;3.30;;;;;;;;;;5038197;28;93629;-77
2022/10/30 00:09:29;;;;;;;6.10;3.53;;;;;;;;;;5035457;28;93166;-77
2022/10/30 00:11:56;;;;;;;4.55;3.05;;;;;;;;;;5035294;28;93446;-77
2022/10/30 00:14:22;;;;;;;6.50;3.50;;;;;;;;;;5035949;28;92523;-77
2022/10/30 00:16:48;;;;;;;5.53;3.30;;;;;;;;;;5035511;28;93093;-77
2022/10/30 00:19:15;;;;;;;6.68;3.72;;;;;;;;;;5035243;28;92376;-77
2022/10/30 00:21:41;;;;;;;4.22;3.22;;;;;;;;;;5017614;28;92672;-77
2022/10/30 00:24:09;;;;;;;5.35;3.65;;;;;;;;;;5033899;28;94887;-77
2022/10/30 00:26:35;;;;;;;4.45;3.58;;;;;;;;;;5035247;28;93470;-77
2022/10/30 00:29:02;;;;;;;4.43;3.13;;;;;;;;;;5038337;28;92494;-77
2022/10/30 00:31:28;;;;;;;5.38;2.95;;;;;;;;;;5034800;28;93778;-77
2022/10/30 00:33:54;;;;;;;4.95;3.50;;;;;;;;;;5035586;28;92951;-76
2022/10/30 00:36:21;;;;;;;5.00;3.70;;;;;;;;;;5035617;28;94592;-77
2022/10/30 00:38:48;;;;;;;5.18;3.60;;;;;;;;;;5035296;28;95645;-77
2022/10/30 00:41:18;;;;;;;5.13;3.55;;;;;;;;;;5035791;28;91813;-77
2022/10/30 00:43:45;;;;;;;4.18;3.00;;;;;;;;;;5017193;28;92386;-77
2022/10/30 00:46:12;;;;;;;8.15;3.60;;;;;;;;;;5016680;28;93884;-77
2022/10/30 00:48:38;;;;;;;4.45;3.30;;;;;;;;;;5015573;28;95004;-77
2022/10/30 00:51:06;;;;;;;6.72;3.60;;;;;;;;;;5037684;28;95514;-77
2022/10/30 00:53:33;;;;;;;5.70;3.25;;;;;;;;;;5017518;28;92595;-77
2022/10/30 00:56:01;;;;;;;5.75;3.67;;;;;;;;;;5016929;28;93184;-77
2022/10/30 00:58:30;;;;;;;6.10;3.60;;;;;;;;;;5016741;28;92568;-77
2022/10/30 01:00:59;;;;;;;6.05;3.10;;;;;;;;;;5033792;28;92410;-77
2022/10/30 01:03:26;;;;;;;6.15;3.30;;;;;;;;;;5034496;28;93778;-77
2022/10/30 01:05:55;;;;;;;5.55;3.15;;;;;;;;;;5034964;28;92718;-77
2022/10/30 01:08:22;;;;;;;5.80;3.20;;;;;;;;;;5035161;28;92411;-77
2022/10/30 01:10:48;;;;;;;4.90;3.55;;;;;;;;;;5019788;28;93354;-77
2022/10/30 01:13:15;;;;;;;4.00;3.08;;;;;;;;;;5032858;28;95659;-77
2022/10/30 01:16:00;;;;;;;4.18;3.33;;;;;;;;;;5034957;28;95590;-77
2022/10/30 01:18:33;;;;;;;3.70;2.83;;;;;;;;;;5034670;28;92896;-77
2022/10/30 01:21:31;;;;;;;7.43;3.40;;;;;;;;;;5034262;28;92346;-77
2022/10/30 01:24:08;;;;;;;5.13;3.22;;;;;;;;;;4979450;28;93441;-77
2022/10/30 01:26:45;;;;;;;4.60;3.50;;;;;;;;;;5034252;28;93470;-77
2022/10/30 01:29:30;;;;;;;4.22;3.22;;;;;;;;;;5034676;28;92494;-77
2022/10/30 01:32:05;;;;;;;4.78;3.25;;;;;;;;;;5034669;28;93130;-76
2022/10/30 01:34:34;;;;;;;4.65;3.60;;;;;;;;;;5037442;28;93313;-77
2022/10/30 01:37:02;;;;;;;6.97;3.30;;;;;;;;;;5016889;28;93293;-77
2022/10/30 01:39:32;;;;;;;4.80;3.03;;;;;;;;;;5032215;28;95834;-76
2022/10/30 01:41:58;;;;;;;8.07;3.50;;;;;;;;;;5034195;28;92427;-76
2022/10/30 01:44:27;;;;;;;3.67;3.30;;;;;;;;;;5033823;28;93098;-76
2022/10/30 01:47:19;;;;;;;6.90;3.30;;;;;;;;;;5033355;28;93374;-76
2022/10/30 01:49:59;;;;;;;5.55;2.97;;;;;;;;;;5034341;28;92371;-77
2022/10/30 01:52:28;;;;;;;8.02;3.63;;;;;;;;;;5034239;28;93140;-77
2022/10/30 01:54:54;;;;;;;6.00;3.10;;;;;;;;;;5033735;28;93400;-77
2022/10/30 01:57:20;;;;;;;7.15;3.55;;;;;;;;;;5037399;28;92036;-77
2022/10/30 01:59:50;;;;;;;4.93;3.17;;;;;;;;;;5034068;28;93770;-77
2022/10/30 02:02:17;;;;;;;5.78;3.30;;;;;;;;;;5034060;28;92663;-77
2022/10/30 02:04:43;;;;;;;5.72;3.42;;;;;;;;;;5033074;28;94799;-77
2022/10/30 02:07:10;;;;;;;5.85;3.42;;;;;;;;;;5033092;28;92452;-76
2022/10/30 02:09:37;;;;;;;4.00;3.25;;;;;;;;;;5033943;28;92549;-77
2022/10/30 02:12:04;;;;;;;5.18;3.33;;;;;;;;;;5035268;27;93710;-77
2022/10/30 02:14:33;;;;;;;4.57;3.45;;;;;;;;;;5019530;28;93470;-77
2022/10/30 02:17:01;;;;;;;4.43;3.10;;;;;;;;;;5019444;28;92510;-77
2022/10/30 02:19:27;;;;;;;6.53;3.35;;;;;;;;;;5040385;28;93253;-77
2022/10/30 02:21:54;;;;;;;4.65;3.60;;;;;;;;;;5037196;28;91747;-77
2022/10/30 02:24:20;;;;;;;5.57;3.35;;;;;;;;;;5037290;28;92402;-77
2022/10/30 02:26:47;;;;;;;4.60;3.00;;;;;;;;;;5037029;28;93434;-76
2022/10/30 02:29:13;;;;;;;5.07;3.28;;;;;;;;;;5035532;28;94859;-76
2022/10/30 02:31:39;;;;;;;5.88;3.38;;;;;;;;;;5036773;28;95497;-76
2022/10/30 02:34:06;;;;;;;6.13;3.05;;;;;;;;;;5036999;28;93793;-76
2022/10/30 02:36:32;;;;;;;4.68;3.17;;;;;;;;;;5037682;28;92424;-77
2022/10/30 02:38:59;;;;;;;4.50;3.25;;;;;;;;;;5019356;28;93309;-77
2022/10/30 02:41:25;;;;;;;4.72;3.13;;;;;;;;;;5040343;28;94727;-77
2022/10/30 02:43:52;;;;;;;7.03;3.33;;;;;;;;;;5037195;28;93121;-77
2022/10/30 02:46:18;;;;;;;4.00;2.92;;;;;;;;;;5036695;28;92701;-77
2022/10/30 02:48:45;;;;;;;4.80;3.53;;;;;;;;;;5037014;28;92499;-77
2022/10/30 02:51:11;;;;;;;4.13;2.97;;;;;;;;;;5036795;28;92410;-77
2022/10/30 02:53:38;;;;;;;5.72;3.20;;;;;;;;;;5035148;28;95929;-77
2022/10/30 02:56:05;;;;;;;5.13;3.55;;;;;;;;;;5037206;28;92446;-77
2022/10/30 02:58:32;;;;;;;5.65;3.45;;;;;;;;;;5037275;28;94275;-76
2022/10/30 03:01:24;;;;;;;5.20;3.40;;;;;;;;;;5019271;28;96204;-76
2022/10/30 03:03:51;;;;;;;4.38;3.20;;;;;;;;;;5035928;27;92540;-77
2022/10/30 03:06:17;;;;;;;6.57;3.20;;;;;;;;;;5035587;28;93416;-77
2022/10/30 03:08:44;;;;;;;4.18;3.00;;;;;;;;;;5036439;28;92647;-76
2022/10/30 03:11:12;;;;;;;3.83;3.20;;;;;;;;;;5037053;28;93139;-77
2022/10/30 03:13:39;;;;;;;5.95;3.47;;;;;;;;;;5036118;28;93445;-77
2022/10/30 03:16:07;;;;;;;4.10;3.47;;;;;;;;;;5036674;28;92469;-77
2022/10/30 03:18:34;;;;;;;4.03;2.92;;;;;;;;;;5035118;28;94835;-77
2022/10/30 03:21:01;;;;;;;5.78;3.05;;;;;;;;;;5006445;28;93774;-77
2022/10/30 03:23:27;;;;;;;6.00;3.42;;;;;;;;;;5018595;28;92873;-77
2022/10/30 03:25:55;;;;;;;5.72;3.47;;;;;;;;;;5016011;28;93443;-76
2022/10/30 03:28:22;;;;;;;5.18;3.25;;;;;;;;;;5016534;28;92425;-76
2022/10/30 03:30:48;;;;;;;5.28;3.42;;;;;;;;;;5016146;28;93148;-77
2022/10/30 03:33:15;;;;;;;5.60;3.53;;;;;;;;;;5016154;28;96998;-77
2022/10/30 03:35:43;;;;;;;4.15;3.00;;;;;;;;;;4999250;28;91768;-77
2022/10/30 03:38:10;;;;;;;4.53;3.45;;;;;;;;;;5016029;28;92757;-77
2022/10/30 03:40:39;;;;;;;7.25;3.33;;;;;;;;;;5015777;28;93261;-76
2022/10/30 03:43:06;;;;;;;5.65;3.28;;;;;;;;;;5014021;28;94844;-77
2022/10/30 03:45:32;;;;;;;5.40;3.47;;;;;;;;;;5024045;28;95912;-77
2022/10/30 03:48:02;;;;;;;7.20;3.72;;;;;;;;;;5035673;28;92457;-76
2022/10/30 03:50:29;;;;;;;5.13;3.08;;;;;;;;;;5018267;28;93095;-76
2022/10/30 03:52:55;;;;;;;6.30;3.08;;;;;;;;;;5035352;28;93808;-76
2022/10/30 03:55:22;;;;;;;4.78;3.67;;;;;;;;;;5035931;28;92394;-77
2022/10/30 03:57:49;;;;;;;5.28;3.00;;;;;;;;;;5035562;28;93038;-77
2022/10/30 04:00:16;;;;;;;3.83;3.05;;;;;;;;;;5035882;28;93040;-77
2022/10/30 04:02:49;;;;;;;6.03;3.40;;;;;;;;;;5035568;28;92527;-77
2022/10/30 04:05:16;;;;;;;11.45;3.38;;;;;;;;;;5018028;28;95296;-77
2022/10/30 04:07:43;;;;;;;4.07;3.10;;;;;;;;;;5036584;28;95838;-77
2022/10/30 04:10:09;;;;;;;5.18;3.03;;;;;;;;;;5035435;28;98023;-77
2022/10/30 04:12:36;;;;;;;4.80;3.30;;;;;;;;;;5035494;28;93393;-76
2022/10/30 04:15:03;;;;;;;5.88;3.30;;;;;;;;;;5035731;28;92420;-77
2022/10/30 04:17:29;;;;;;;4.30;3.22;;;;;;;;;;5035377;28;92379;-77
2022/10/30 04:19:55;;;;;;;4.30;2.78;;;;;;;;;;5035295;28;93381;-77
2022/10/30 04:22:22;;;;;;;5.70;3.15;;;;;;;;;;5017554;28;92569;-77
2022/10/30 04:24:48;;;;;;;4.07;3.00;;;;;;;;;;5018216;28;93170;-77
2022/10/30 04:27:15;;;;;;;5.03;3.17;;;;;;;;;;5035256;28;93428;-77
2022/10/30 04:29:42;;;;;;;3.85;3.22;;;;;;;;;;5038202;28;92581;-77
2022/10/30 04:32:09;;;;;;;4.70;3.33;;;;;;;;;;5033860;28;96274;-76
2022/10/30 04:34:38;;;;;;;4.00;2.92;;;;;;;;;;5034843;28;92452;-76
2022/10/30 04:37:05;;;;;;;4.35;3.08;;;;;;;;;;5035665;28;94078;-77
2022/10/30 04:39:32;;;;;;;3.95;3.10;;;;;;;;;;5034976;28;93586;-77
2022/10/30 04:41:58;;;;;;;3.58;3.10;;;;;;;;;;5035214;28;92505;-77
2022/10/30 04:44:24;;;;;;;5.18;3.00;;;;;;;;;;5035453;28;96510;-77
2022/10/30 04:46:51;;;;;;;5.97;3.20;;;;;;;;;;5034795;28;93383;-77
2022/10/30 04:49:17;;;;;;;5.25;3.00;;;;;;;;;;5035701;28;91772;-77
2022/10/30 04:51:46;;;;;;;3.92;3.08;;;;;;;;;;5037429;28;92395;-77
2022/10/30 04:54:12;;;;;;;3.88;2.85;;;;;;;;;;5016820;28;92490;-77
2022/10/30 04:56:38;;;;;;;7.43;3.10;;;;;;;;;;5033965;28;94910;-77
2022/10/30 04:59:05;;;;;;;3.92;3.00;;;;;;;;;;5035197;28;93882;-77
2022/10/30 05:01:31;;;;;;;3.80;3.38;;;;;;;;;;5035033;28;92454;-77
2022/10/30 05:03:58;;;;;;;4.25;3.13;;;;;;;;;;5016995;28;94338;-77
2022/10/30 05:06:25;;;;;;;5.10;2.95;;;;;;;;;;5033727;28;93410;-77
2022/10/30 05:08:51;;;;;;;3.65;2.95;;;;;;;;;;5034869;28;92430;-77
2022/10/30 05:11:18;;;;;;;4.47;2.80;;;;;;;;;;5034874;28;93441;-76
2022/10/30 05:13:44;;;;;;;4.18;2.83;;;;;;;;;;5037997;28;92630;-76
2022/10/30 05:16:10;;;;;;;5.07;3.30;;;;;;;;;;5034334;28;92719;-77
2022/10/30 05:18:37;;;;;;;4.03;3.10;;;;;;;;;;5034816;28;94380;-76
2022/10/30 05:21:03;;;;;;;6.93;3.10;;;;;;;;;;5014711;28;94864;-77
2022/10/30 05:23:29;;;;;;;4.10;3.08;;;;;;;;;;5034599;28;95812;-77
2022/10/30 05:25:56;;;;;;;5.15;3.33;;;;;;;;;;5034361;28;93224;-77
2022/10/30 05:28:22;;;;;;;5.07;3.00;;;;;;;;;;5035012;28;92394;-77
2022/10/30 05:30:51;;;;;;;4.60;2.88;;;;;;;;;;5034805;28;93107;-77
2022/10/30 05:33:17;;;;;;;7.63;3.42;;;;;;;;;;5037555;28;93464;-77
2022/10/30 05:35:44;;;;;;;5.32;3.10;;;;;;;;;;5016428;28;92330;-77
2022/10/30 05:38:10;;;;;;;3.58;2.85;;;;;;;;;;5016997;28;92451;-77
2022/10/30 05:40:37;;;;;;;3.58;2.97;;;;;;;;;;5016630;28;92550;-77
2022/10/30 05:43:03;;;;;;;5.28;3.33;;;;;;;;;;5016374;28;93520;-77
2022/10/30 05:45:30;;;;;;;4.13;2.90;;;;;;;;;;5032129;27;95941;-77
2022/10/30 05:48:05;;;;;;;8.88;3.38;;;;;;;;;;5018937;28;92575;-77
2022/10/30 05:50:32;;;;;;;3.92;2.67;;;;;;;;;;5020215;28;93152;-77
2022/10/30 05:53:00;;;;;;;4.30;2.78;;;;;;;;;;5038060;28;94086;-76
2022/10/30 05:55:26;;;;;;;4.68;3.03;;;;;;;;;;5040687;28;92485;-77
2022/10/30 05:58:00;;;;;;;4.03;2.92;;;;;;;;;;5038265;28;93838;-77
2022/10/30 06:00:28;;;;;;;6.63;3.10;;;;;;;;;;5038038;28;92847;-77
2022/10/30 06:02:57;;;;;;;3.92;2.63;;;;;;;;;;5037759;28;93090;-77
2022/10/30 06:05:24;;;;;;;5.35;3.38;;;;;;;;;;5037169;28;93443;-76
2022/10/30 06:07:53;;;;;;;4.15;2.78;;;;;;;;;;5037291;28;92451;-77
2022/10/30 06:10:19;;;;;;;4.03;3.00;;;;;;;;;;5018136;28;94818;-77
2022/10/30 06:12:55;;;;;;;5.93;3.22;;;;;;;;;;5037450;28;93556;-77
2022/10/30 06:15:23;;;;;;;4.70;3.13;;;;;;;;;;5037479;28;92493;-77
2022/10/30 06:17:49;;;;;;;3.83;2.75;;;;;;;;;;5040423;28;93114;-77
2022/10/30 06:20:16;;;;;;;4.60;3.03;;;;;;;;;;5037280;28;92382;-77
2022/10/30 06:22:52;;;;;;;4.85;2.90;;;;;;;;;;5037412;28;93143;-77
2022/10/30 06:25:18;;;;;;;4.80;2.88;;;;;;;;;;5019706;28;93695;-77
2022/10/30 06:27:44;;;;;;;4.95;3.03;;;;;;;;;;5019750;28;91713;-77
2022/10/30 06:30:11;;;;;;;5.25;2.67;;;;;;;;;;5037279;28;92489;-77
2022/10/30 06:32:37;;;;;;;5.18;2.80;;;;;;;;;;5019743;28;97402;-77
2022/10/30 06:35:03;;;;;;;5.35;2.92;;;;;;;;;;5035585;28;94832;-77
2022/10/30 06:37:30;;;;;;;5.22;3.20;;;;;;;;;;5037091;28;95517;-77
2022/10/30 06:39:56;;;;;;;4.93;2.95;;;;;;;;;;5040449;28;94124;-77
2022/10/30 06:42:22;;;;;;;4.20;3.00;;;;;;;;;;5037270;28;93072;-77
2022/10/30 06:44:49;;;;;;;3.67;2.60;;;;;;;;;;5036650;28;93610;-77
2022/10/30 06:47:15;;;;;;;4.68;3.13;;;;;;;;;;5036625;28;93054;-77
2022/10/30 06:49:41;;;;;;;4.80;2.80;;;;;;;;;;5036870;28;93090;-77
2022/10/30 06:52:07;;;;;;;5.18;2.85;;;;;;;;;;5037293;28;92698;-77
2022/10/30 06:54:34;;;;;;;4.88;3.03;;;;;;;;;;5019494;28;92459;-77
2022/10/30 06:57:00;;;;;;;5.00;3.20;;;;;;;;;;5018861;28;93107;-77
2022/10/30 06:59:27;;;;;;;5.40;3.20;;;;;;;;;;5033470;28;95976;-77
2022/10/30 07:01:53;;;;;;;3.88;2.63;;;;;;;;;;5022539;28;92473;-77
2022/10/30 07:04:25;;;;;;;4.43;2.50;;;;;;;;;;5036031;28;93846;-77
2022/10/30 07:06:51;;;;;;;4.85;2.83;;;;;;;;;;5036633;28;92453;-77
2022/10/30 07:09:18;;;;;;;6.82;2.83;;;;;;;;;;5036322;28;93298;-77
2022/10/30 07:11:44;;;;;;;4.53;2.85;;;;;;;;;;5036232;28;93360;-77
2022/10/30 07:14:11;;;;;;;4.10;2.92;;;;;;;;;;5036617;28;92551;-77
2022/10/30 07:16:37;;;;;;;4.53;2.90;;;;;;;;;;5037119;28;95280;-77
2022/10/30 07:19:03;;;;;;;4.07;2.92;;;;;;;;;;5036206;28;93580;-77
2022/10/30 07:21:30;;;;;;;4.00;2.85;;;;;;;;;;5035938;28;92477;-77
2022/10/30 07:23:56;;;;;;;4.43;2.97;;;;;;;;;;5037934;28;94706;-77
2022/10/30 07:26:23;;;;;;;3.92;2.90;;;;;;;;;;5036421;28;92536;-77
2022/10/30 07:28:49;;;;;;;4.95;2.85;;;;;;;;;;5036361;28;92283;-77
2022/10/30 07:31:15;;;;;;;6.35;3.20;;;;;;;;;;5036589;28;94207;-77
2022/10/30 07:34:00;;;;;;;4.63;2.35;;;;;;;;;;5022146;28;92419;-77
2022/10/30 07:36:26;;;;;;;4.00;2.42;;;;;;;;;;5036620;28;93092;-77
2022/10/30 07:38:53;;;;;;;4.25;2.42;;;;;;;;;;5036329;28;95006;-77
2022/10/30 07:41:20;;;;;;;5.05;2.83;;;;;;;;;;5018817;28;91717;-77
2022/10/30 07:43:46;;;;;;;6.05;2.40;;;;;;;;;;5021692;28;92931;-77
2022/10/30 07:46:13;;;;;;;4.70;3.03;;;;;;;;;;5018172;28;92434;-77
2022/10/30 07:48:39;;;;;;;4.10;2.83;;;;;;;;;;5034684;28;94753;-77
2022/10/30 07:51:06;;;;;;;4.38;3.15;;;;;;;;;;5035757;28;93525;-77
2022/10/30 07:53:32;;;;;;;4.10;2.90;;;;;;;;;;5036375;28;92470;-77
2022/10/30 07:55:59;;;;;;;5.00;2.88;;;;;;;;;;5018516;28;95876;-77
2022/10/30 07:58:25;;;;;;;4.28;2.90;;;;;;;;;;5035626;28;93401;-77
2022/10/30 08:00:51;;;;;;;3.75;2.85;;;;;;;;;;5035756;28;92387;-77
2022/10/30 08:03:17;;;;;;;4.00;2.90;;;;;;;;;;5035673;28;93125;-77
2022/10/30 08:05:44;;;;;;;4.15;3.00;;;;;;;;;;5038864;28;93333;-77
2022/10/30 08:08:10;;;;;;;4.95;3.10;;;;;;;;;;5035136;28;92478;-77
2022/10/30 08:10:37;;;;;;;4.55;2.88;;;;;;;;;;5017056;28;93876;-77
2022/10/30 08:13:03;;;;;;;4.25;2.90;;;;;;;;;;5034124;28;94840;-77
2022/10/30 08:15:29;;;;;;;4.30;2.70;;;;;;;;;;5018041;28;94081;-77
2022/10/30 08:17:55;;;;;;;4.70;3.13;;;;;;;;;;5035185;28;93440;-77
2022/10/30 08:20:23;;;;;;;3.33;3.03;;;;;;;;;;5035360;28;92420;-77
2022/10/30 08:22:50;;;;;;;5.70;3.40;;;;;;;;;;5035295;28;92388;-77
2022/10/30 08:25:18;;;;;;;4.47;2.95;;;;;;;;;;5035087;28;93404;-77
2022/10/30 08:27:54;;;;;;;4.50;2.72;;;;;;;;;;5020886;28;92469;-77
2022/10/30 08:30:21;;;;;;;4.47;2.90;;;;;;;;;;5035754;28;93077;-77
2022/10/30 08:32:47;;;;;;;4.72;3.08;;;;;;;;;;5017996;28;92798;-77
2022/10/30 08:35:15;;;;;;;4.93;3.40;;;;;;;;;;5035268;28;93085;-77
2022/10/30 08:37:45;;;;;;;4.05;3.15;;;;;;;;;;5033307;28;96231;-77
2022/10/30 08:40:11;;;;;;;3.97;2.80;;;;;;;;;;5035548;28;92445;-77
2022/10/30 08:42:38;;;;;;;4.07;2.97;;;;;;;;;;5035188;28;93564;-77
2022/10/30 08:45:05;;;;;;;4.90;3.13;;;;;;;;;;5034830;28;92344;-76
2022/10/30 08:47:31;;;;;;;3.20;2.90;;;;;;;;;;5035690;28;92369;-77
2022/10/30 08:49:57;;;;;;;3.97;2.80;;;;;;;;;;5037879;28;93168;-76
2022/10/30 08:52:24;;;;;;;4.15;2.47;;;;;;;;;;5034707;28;92457;-77
2022/10/30 08:54:50;;;;;;;4.43;3.00;;;;;;;;;;5035411;28;93052;-77
2022/10/30 08:57:16;;;;;;;5.38;3.10;;;;;;;;;;5034628;28;93324;-77
2022/10/30 08:59:43;;;;;;;4.00;2.90;;;;;;;;;;5035376;28;92508;-77
2022/10/30 09:02:09;;;;;;;4.30;3.03;;;;;;;;;;5033139;28;94875;-77
2022/10/30 09:04:35;;;;;;;4.25;3.25;;;;;;;;;;5034923;28;96421;-77
2022/10/30 09:07:02;;;;;;;3.30;2.72;;;;;;;;;;5034310;28;92626;-77
2022/10/30 09:09:32;;;;;;;3.80;3.15;;;;;;;;;;5035388;28;94345;-77
2022/10/30 09:11:58;;;;;;;7.38;3.33;;;;;;;;;;5037350;28;93369;-76
2022/10/30 09:14:25;;;;;;;4.82;3.10;;;;;;;;;;5035025;28;93156;-77
2022/10/30 09:16:53;;;;;;;4.60;3.10;;;;;;;;;;5016520;28;93426;-77
2022/10/30 09:19:19;;;;;;;3.33;2.67;;;;;;;;;;5035855;28;91567;-77
2022/10/30 09:21:45;;;;;;;3.83;2.88;;;;;;;;;;5015644;28;92457;-77
2022/10/30 09:24:11;;;;;;;2.75;2.55;;;;;;;;;;5034776;28;94541;-77
2022/10/30 09:26:38;;;;;;;4.18;3.03;;;;;;;;;;5032881;28;95010;-77
2022/10/30 09:29:04;;;;;;;3.50;2.70;;;;;;;;;;5034235;28;95529;-77
2022/10/30 09:31:30;;;;;;;5.63;2.90;;;;;;;;;;5034023;28;93432;-77
2022/10/30 09:33:57;;;;;;;5.28;2.45;;;;;;;;;;5037746;28;92424;-77
2022/10/30 09:36:23;;;;;;;8.88;3.28;;;;;;;;;;5034527;28;94427;-77
2022/10/30 09:38:49;;;;;;;3.25;2.70;;;;;;;;;;5016544;28;92532;-77
2022/10/30 09:41:15;;;;;;;4.35;2.83;;;;;;;;;;5034240;28;93151;-77
2022/10/30 09:43:57;;;;;;;4.78;3.00;;;;;;;;;;5034810;28;92704;-77
2022/10/30 09:46:39;;;;;;;3.08;2.60;;;;;;;;;;5034132;28;92414;-77
2022/10/30 09:49:05;;;;;;;7.13;2.90;;;;;;;;;;5034591;28;95557;-77
2022/10/30 09:51:37;;;;;;;4.28;2.70;;;;;;;;;;5032388;28;95882;-77
2022/10/30 09:54:14;;;;;;;3.08;2.60;;;;;;;;;;5019383;28;92430;-77
2022/10/30 09:56:44;;;;;;;5.35;3.33;;;;;;;;;;5034174;28;93663;-77
2022/10/30 09:59:10;;;;;;;;;;;;;;;;;;5034485;28;92451;-77
2022/10/30 10:01:45;;;;;;;4.13;2.78;;;;;;;;;;5035476;28;121558;-77
2022/10/30 10:04:12;;;;;;;5.20;2.60;;;;;;;;;;5033343;28;93572;-77
2022/10/30 10:06:40;;;;;;;5.00;2.80;;;;;;;;;;5034044;28;92521;-77
2022/10/30 10:09:08;;;;;;;4.55;2.70;;;;;;;;;;5034549;28;93078;-77
2022/10/30 10:11:35;;;;;;;6.38;3.13;;;;;;;;;;5034113;28;94805;-77
2022/10/30 10:14:07;;;;;;;3.88;2.60;;;;;;;;;;5016487;28;92427;-77
2022/10/30 10:16:35;;;;;;;4.72;2.75;;;;;;;;;;5017343;28;96449;-77
2022/10/30 10:19:10;;;;;;;2.90;2.47;;;;;;;;;;5033724;28;92490;-77
2022/10/30 10:21:49;;;;;;;3.10;2.63;;;;;;;;;;5016351;28;93429;-79
2022/10/30 10:24:18;;;;;;;3.60;3.20;;;;;;;;;;5034403;28;96231;-77
2022/10/30 10:26:51;;;;;;;3.55;2.72;;;;;;;;;;5033818;28;92730;-77
2022/10/30 10:29:20;;;;;;;5.13;3.22;;;;;;;;;;5033727;28;93138;-77
2022/10/30 10:32:07;;;;;;;3.78;2.70;;;;;;;;;;5016293;28;93211;-77
2022/10/30 10:34:47;;;;;;;3.28;2.60;;;;;;;;;;5019784;28;91798;-77
2022/10/30 10:37:34;;;;;;;3.20;2.58;;;;;;;;;;5037383;28;92496;-77
2022/10/30 10:40:10;;;;;;;3.08;2.30;;;;;;;;;;5040524;28;96521;-77
2022/10/30 10:42:45;;;;;;;5.20;3.30;;;;;;;;;;5036422;28;94749;-77
2022/10/30 10:45:20;;;;;;;3.88;2.63;;;;;;;;;;5036690;28;93277;-77
2022/10/30 10:47:58;;;;;;;4.30;2.60;;;;;;;;;;5036913;28;92542;-77
2022/10/30 10:50:36;;;;;;;5.13;3.15;;;;;;;;;;5036739;28;93211;-77
2022/10/30 10:53:06;;;;;;;4.50;3.08;;;;;;;;;;5036560;28;93839;-77
2022/10/30 10:55:35;;;;;;;4.43;3.25;;;;;;;;;;5019723;28;92571;-77
2022/10/30 10:58:17;;;;;;;4.88;2.90;;;;;;;;;;5037075;28;94635;-77
2022/10/30 11:00:44;;;;;;;5.78;2.90;;;;;;;;;;5019566;28;93789;-77
2022/10/30 11:03:16;;;;;;;3.88;2.75;;;;;;;;;;5021911;28;94234;-77
2022/10/30 11:05:47;;;;;;;5.45;2.83;;;;;;;;;;5018745;28;93605;-77
2022/10/30 11:08:13;;;;;;;;;;;;;;;;;;5035183;28;94822;-77
2022/10/30 11:10:39;;;;;;;3.55;2.70;;;;;;;;;;5019669;28;125945;-77
2022/10/30 11:13:05;;;;;;;5.35;3.10;;;;;;;;;;5036162;28;93423;-77
2022/10/30 11:15:35;;;;;;;3.47;2.67;;;;;;;;;;5018749;28;92544;-77
2022/10/30 11:18:03;;;;;;;4.68;3.00;;;;;;;;;;5036479;28;93116;-77
2022/10/30 11:20:36;;;;;;;4.15;2.95;;;;;;;;;;5010652;28;93094;-77
2022/10/30 11:23:23;;;;;;;4.50;3.00;;;;;;;;;;5016252;28;92544;-77
2022/10/30 11:25:49;;;;;;;5.13;2.75;;;;;;;;;;5019452;28;93456;-77
2022/10/30 11:28:29;;;;;;;3.80;2.90;;;;;;;;;;5015871;28;92434;-77
2022/10/30 11:31:17;;;;;;;5.30;3.05;;;;;;;;;;5016689;28;93146;-77
2022/10/30 11:33:43;;;;;;;3.47;2.70;;;;;;;;;;4996982;28;98385;-77
2022/10/30 11:36:10;;;;;;;5.50;2.80;;;;;;;;;;5015886;28;92425;-77
2022/10/30 11:38:41;;;;;;;4.10;3.00;;;;;;;;;;4999424;28;93122;-77
2022/10/30 11:41:09;;;;;;;5.10;2.83;;;;;;;;;;5016340;28;94643;-77
2022/10/30 11:43:37;;;;;;;5.38;2.95;;;;;;;;;;5015949;28;92334;-77
2022/10/30 11:46:08;;;;;;;4.10;3.10;;;;;;;;;;5027491;28;93662;-77
2022/10/30 11:48:36;;;;;;;4.82;2.90;;;;;;;;;;5035666;28;92482;-77
2022/10/30 11:51:03;;;;;;;3.72;2.60;;;;;;;;;;5036415;28;93182;-77
2022/10/30 11:53:33;;;;;;;4.60;2.85;;;;;;;;;;5035646;28;93294;-77
2022/10/30 11:55:59;;;;;;;;;;;;;;;;;;5036499;28;92423;-77
2022/10/30 11:58:36;;;;;;;4.03;2.50;;;;;;;;;;5035455;28;121636;-77
2022/10/30 12:01:12;;;;;;;4.07;2.78;;;;;;;;;;5035400;28;93434;-77
2022/10/30 12:03:40;;;;;;;3.05;2.67;;;;;;;;;;5035497;28;92511;-76
2022/10/30 12:06:07;;;;;;;4.05;2.58;;;;;;;;;;5035810;28;92372;-77
2022/10/30 12:08:33;;;;;;;3.55;2.60;;;;;;;;;;5038667;28;93381;-77
2022/10/30 12:11:00;;;;;;;3.47;2.90;;;;;;;;;;5035509;28;93050;-77
2022/10/30 12:13:29;;;;;;;5.50;2.88;;;;;;;;;;5035343;28;93367;-77
2022/10/30 12:16:03;;;;;;;5.28;2.70;;;;;;;;;;5035950;28;91715;-77
2022/10/30 12:18:29;;;;;;;5.38;2.80;;;;;;;;;;5017916;28;92876;-77
2022/10/30 12:20:56;;;;;;;5.50;2.85;;;;;;;;;;5035058;28;93775;-77
2022/10/30 12:23:24;;;;;;;3.80;2.88;;;;;;;;;;5033872;28;94824;-77
2022/10/30 12:26:06;;;;;;;3.40;2.70;;;;;;;;;;5017661;28;95489;-77
2022/10/30 12:28:33;;;;;;;4.15;2.58;;;;;;;;;;5017475;28;93692;-77
2022/10/30 12:31:02;;;;;;;3.55;2.70;;;;;;;;;;5038336;28;92463;-77
2022/10/30 12:34:01;;;;;;;4.80;2.92;;;;;;;;;;5035210;28;93665;-77
2022/10/30 12:36:32;;;;;;;3.10;2.80;;;;;;;;;;4990528;28;92591;-77
2022/10/30 12:39:02;;;;;;;4.95;2.83;;;;;;;;;;5017470;28;93268;-77
2022/10/30 12:41:28;;;;;;;6.35;3.00;;;;;;;;;;5035764;28;92693;-77
2022/10/30 12:43:57;;;;;;;3.72;2.90;;;;;;;;;;5035064;28;92443;-77
2022/10/30 12:46:26;;;;;;;3.25;2.80;;;;;;;;;;5034860;28;93249;-77
2022/10/30 12:48:59;;;;;;;7.32;2.88;;;;;;;;;;5015086;28;95993;-77
2022/10/30 12:51:29;;;;;;;3.63;2.78;;;;;;;;;;5035431;28;93052;-77
2022/10/30 12:54:06;;;;;;;4.10;2.83;;;;;;;;;;5038514;28;95321;-77
2022/10/30 12:56:35;;;;;;;2.92;2.50;;;;;;;;;;5017636;28;92344;-77
2022/10/30 12:59:22;;;;;;;4.45;2.50;;;;;;;;;;5035714;28;95317;-77
2022/10/30 13:01:50;;;;;;;4.80;2.85;;;;;;;;;;5020678;28;93213;-77
2022/10/30 13:04:19;;;;;;;3.70;2.58;;;;;;;;;;5034506;28;92632;-77
2022/10/30 13:06:50;;;;;;;4.07;2.85;;;;;;;;;;5034173;28;93135;-77
2022/10/30 13:09:19;;;;;;;6.20;2.95;;;;;;;;;;5034554;28;93463;-77
2022/10/30 13:11:52;;;;;;;3.40;2.70;;;;;;;;;;5034735;28;92549;-77
2022/10/30 13:14:21;;;;;;;6.80;3.00;;;;;;;;;;5033002;28;94841;-77
2022/10/30 13:16:49;;;;;;;2.90;2.63;;;;;;;;;;5037434;28;93320;-77
2022/10/30 13:19:15;;;;;;;3.42;2.78;;;;;;;;;;5034394;28;93139;-77
2022/10/30 13:22:14;;;;;;;5.22;2.75;;;;;;;;;;5034751;28;93169;-77
2022/10/30 13:24:47;;;;;;;4.00;2.95;;;;;;;;;;4933290;28;92877;-77
2022/10/30 13:27:31;;;;;;;3.50;3.13;;;;;;;;;;4933238;28;93284;-77
2022/10/30 13:30:02;;;;;;;3.35;2.45;;;;;;;;;;4933520;28;93437;-77
2022/10/30 13:32:43;;;;;;;4.68;3.08;;;;;;;;;;4933763;28;91869;-77
2022/10/30 13:35:24;;;;;;;4.10;2.75;;;;;;;;;;4933665;28;92496;-77
2022/10/30 13:38:02;;;;;;;4.05;2.85;;;;;;;;;;4933228;28;92758;-77
2022/10/30 13:40:34;;;;;;;6.75;3.17;;;;;;;;;;4934563;28;94946;-77
2022/10/30 13:43:14;;;;;;;3.70;2.47;;;;;;;;;;4932768;28;93445;-77
2022/10/30 13:45:41;;;;;;;6.07;3.03;;;;;;;;;;4933239;28;92636;-77
2022/10/30 13:48:07;;;;;;;5.47;3.03;;;;;;;;;;4933043;28;92549;-77
2022/10/30 13:50:36;;;;;;;3.42;2.72;;;;;;;;;;4932907;28;93609;-77
2022/10/30 13:53:04;;;;;;;3.67;2.80;;;;;;;;;;4932984;28;92506;-77
2022/10/30 13:55:33;;;;;;;4.47;3.00;;;;;;;;;;4933109;28;93195;-77
2022/10/30 13:58:00;;;;;;;4.25;2.55;;;;;;;;;;4917354;28;92798;-77
2022/10/30 14:00:45;;;;;;;5.63;3.00;;;;;;;;;;4977838;28;92571;-77
2022/10/30 14:03:19;;;;;;;5.03;3.10;;;;;;;;;;5013826;28;93432;-77
2022/10/30 14:05:58;;;;;;;5.43;2.88;;;;;;;;;;5012516;28;95171;-77
2022/10/30 14:08:26;;;;;;;4.50;2.65;;;;;;;;;;5015389;28;95837;-77
2022/10/30 14:10:55;;;;;;;6.60;2.90;;;;;;;;;;5000126;28;93302;-77
2022/10/30 14:13:27;;;;;;;3.47;2.72;;;;;;;;;;5017532;28;92505;-77
2022/10/30 14:15:55;;;;;;;4.95;2.90;;;;;;;;;;5007230;28;93161;-77
2022/10/30 14:18:21;;;;;;;4.07;2.83;;;;;;;;;;5037037;28;93466;-77
2022/10/30 14:20:51;;;;;;;4.10;2.80;;;;;;;;;;5037204;28;92437;-77
2022/10/30 14:23:31;;;;;;;5.00;3.10;;;;;;;;;;5041456;28;92923;-77
2022/10/30 14:26:09;;;;;;;3.53;2.80;;;;;;;;;;5037078;28;92499;-77
2022/10/30 14:28:36;;;;;;;4.85;3.33;;;;;;;;;;5037385;28;93166;-77
2022/10/30 14:31:07;;;;;;;3.83;2.92;;;;;;;;;;5035167;28;96181;-77
2022/10/30 14:33:39;;;;;;;5.05;2.80;;;;;;;;;;5037469;28;92432;-77
2022/10/30 14:36:11;;;;;;;5.00;3.10;;;;;;;;;;5037090;28;93431;-77
2022/10/30 14:38:38;;;;;;;6.25;2.70;;;;;;;;;;5036838;28;93882;-77
2022/10/30 14:41:18;;;;;;;7.20;3.47;;;;;;;;;;5037223;28;92436;-77
2022/10/30 14:43:55;;;;;;;5.07;3.08;;;;;;;;;;5037106;28;93233;-77
2022/10/30 14:46:29;;;;;;;5.45;3.00;;;;;;;;;;5039707;28;93421;-77
2022/10/30 14:49:00;;;;;;;4.10;3.25;;;;;;;;;;5037141;28;93094;-77
2022/10/30 14:51:40;;;;;;;5.07;2.97;;;;;;;;;;5019651;28;93949;-76
2022/10/30 14:54:35;;;;;;;4.27;2.73;;;;;;;;;;5036855;28;92443;-77
2022/10/30 14:57:01;;;;;;;3.58;2.65;;;;;;;;;;4953373;28;94884;-77